Loading...
Rio de Janeiro–Galeão International Airport

SBGL

Code AITA: GIG

Rio de Janeiro, Brazil

26.0°

Rosée: 20.0

Vitesse du vent

7 kt

Direction: 360° /

Altimètre

29.97 Hg

QNH : 1015

SBGL 191700Z 36007KT 5000 HZ SCT020 26/20 Q1015


Rio de Janeiro–Galeão International Airport

Élévation

3.0 mètres

Ville

Localisation

Rio de Janeiro

Pays

Brazil

Nouvelle recherche